High temp

Not for real navigation. The accuracy of this data is not assured See disclaimer for more information



ICAO NAME COUNTRY WIND Kt GUST Kt VIS m TEMP/DEW C BARO METAR
VERP 12 0 6000 43/1 29.68 VERP 230900Z 27012KT 6000 FEW030 43/01 Q1005 NOSIG
VEKO 12 0 6000 43/21 29.62 VEKO 230900Z 25012KT 6000 NSC 43/21 Q1003
OIKO 6 0 9999 42/-1 29.77 OIKO 230750Z 04006KT CAVOK 42/M01 Q1008
VANP Nagpur Sonegaon India 15 0 6000 41/5 29.68 VANP 230930Z 28015KT 6000 NSC 41/05 Q1005 NOSIG
VOMD Madurai India 2 0 8000 41/22 29.71 VOMD 230930Z 29002KT 8000 FEW020 41/22 Q1006 NOSIG

Show more